Time;durP1;ratioP1;P1;durP2;ratioP2;P2;SDS_P1;SDS_P2;PMS_P1;PMS_P2;Temp;Humidity;BMP_temperature;BMP_pressure;BME280_temperature;BME280_humidity;BME280_pressure;Samples;Min_cycle;Max_cycle;Signal;HPM_P1;HPM_P2
2021/10/30 00:00:52;;;;;;;34.48;21.65;;;;;;;5.79;100.00;102348.10;1727574;83;21090;-42
2021/10/30 00:03:18;;;;;;;51.18;22.25;;;;;;;5.79;100.00;102351.10;1710818;83;20963;-42
2021/10/30 00:05:46;;;;;;;40.65;23.05;;;;;;;5.77;100.00;102347.61;1727511;83;21071;-42
2021/10/30 00:08:15;;;;;;;30.55;21.27;;;;;;;5.77;100.00;102347.61;1727393;82;21046;-42
2021/10/30 00:10:44;;;;;;;30.43;19.80;;;;;;;5.77;100.00;102347.61;1727578;82;20841;-42
2021/10/30 00:13:10;;;;;;;30.43;19.45;;;;;;;5.75;100.00;102340.73;1727499;83;21466;-42
2021/10/30 00:15:39;;;;;;;28.47;17.32;;;;;;;5.74;100.00;102339.38;1727339;83;20931;-42
2021/10/30 00:18:05;;;;;;;53.63;20.92;;;;;;;5.71;100.00;102344.42;1727355;82;21516;-42
2021/10/30 00:20:34;;;;;;;37.40;18.12;;;;;;;5.66;100.00;102344.27;1727537;82;20924;-42
2021/10/30 00:23:01;;;;;;;30.55;19.32;;;;;;;5.63;100.00;102344.17;1710861;83;20947;-42
2021/10/30 00:25:27;;;;;;;17.75;14.30;;;;;;;5.61;100.00;102348.39;1727758;83;21135;-42
2021/10/30 00:27:54;;;;;;;33.42;17.73;;;;;;;5.63;100.00;102350.59;1727662;82;21387;-42
2021/10/30 00:30:20;;;;;;;68.92;19.90;;;;;;;5.57;100.00;102343.98;1727379;83;20935;-42
2021/10/30 00:32:48;;;;;;;30.70;16.70;;;;;;;5.52;100.00;102350.67;1727779;82;21022;-42
2021/10/30 00:35:15;;;;;;;51.50;19.10;;;;;;;5.51;100.00;102343.79;1727482;82;20952;-42
2021/10/30 00:37:41;;;;;;;39.15;19.62;;;;;;;5.46;100.00;102352.22;1727511;82;21130;-42
2021/10/30 00:40:11;;;;;;;31.37;20.68;;;;;;;5.41;100.00;102346.03;1727384;82;20877;-42
2021/10/30 00:42:41;;;;;;;35.90;22.17;;;;;;;5.40;100.00;102354.56;1727389;83;21051;-42
2021/10/30 00:45:09;;;;;;;25.50;16.85;;;;;;;5.40;100.00;102352.00;1727346;82;20916;-42
2021/10/30 00:47:35;;;;;;;48.23;20.48;;;;;;;5.39;100.00;102353.25;1711053;83;20987;-42
2021/10/30 00:50:04;;;;;;;35.80;19.48;;;;;;;5.36;100.00;102353.15;1727413;83;21181;-42
2021/10/30 00:52:30;;;;;;;33.10;17.75;;;;;;;5.37;100.00;102354.47;1722528;83;20977;-42
2021/10/30 00:54:58;;;;;;;29.52;18.35;;;;;;;5.36;100.00;102350.16;1714608;82;21004;-42
2021/10/30 00:57:25;;;;;;;27.02;19.42;;;;;;;5.37;100.00;102355.75;1714819;83;20890;-42
2021/10/30 00:59:53;;;;;;;42.27;19.48;;;;;;;5.36;100.00;102355.29;1714578;82;20980;-42
2021/10/30 01:02:21;;;;;;;20.00;15.32;;;;;;;5.35;100.00;102356.11;1714509;83;21089;-42
2021/10/30 01:04:48;;;;;;;26.73;18.20;;;;;;;5.35;100.00;102351.41;1714469;83;20882;-42
2021/10/30 01:09:04;;;;;;;38.88;17.20;;;;;;;5.35;100.00;102351.41;1845020;77;22352;-42
2021/10/30 01:11:30;;;;;;;26.75;16.48;;;;;;;5.29;100.00;102352.92;1802337;79;20970;-43
2021/10/30 01:13:57;;;;;;;24.95;17.67;;;;;;;5.28;100.00;102360.59;1785330;79;21212;-43
2021/10/30 01:16:23;;;;;;;31.73;17.87;;;;;;;5.25;100.00;102345.08;1781400;79;20888;-43
2021/10/30 01:18:50;;;;;;;20.65;15.90;;;;;;;5.25;100.00;102345.08;1779051;79;21011;-42
2021/10/30 01:21:37;;;;;;;38.15;17.27;;;;;;;5.22;100.00;102342.41;1783988;79;20959;-42
2021/10/30 01:24:06;;;;;;;27.17;16.32;;;;;;;5.20;100.00;102342.34;1767968;79;20929;-43
2021/10/30 01:26:34;;;;;;;26.17;17.32;;;;;;;5.20;100.00;102347.91;1726790;80;21123;-43
2021/10/30 01:29:03;;;;;;;28.15;16.10;;;;;;;5.16;100.00;102350.34;1759880;81;20964;-43
2021/10/30 01:31:30;;;;;;;27.90;16.15;;;;;;;5.14;100.00;102343.00;1753735;81;20944;-43
2021/10/30 01:33:56;;;;;;;56.00;20.15;;;;;;;5.11;100.00;102344.61;1752766;81;21506;-43
2021/10/30 01:36:23;;;;;;;30.52;17.60;;;;;;;5.09;100.00;102342.41;1751160;81;20949;-43
2021/10/30 01:38:51;;;;;;;29.77;18.07;;;;;;;5.10;100.00;102350.14;1751930;81;21212;-43
2021/10/30 01:41:17;;;;;;;28.55;17.52;;;;;;;5.10;100.00;102348.00;1749063;81;21037;-43
2021/10/30 01:43:44;;;;;;;37.03;18.37;;;;;;;5.13;100.00;102350.67;1751379;81;22113;-43
2021/10/30 01:46:12;;;;;;;24.05;16.75;;;;;;;5.13;100.00;102351.95;1755350;80;21990;-43
2021/10/30 01:48:38;;;;;;;43.73;19.17;;;;;;;5.10;100.00;102351.42;1764384;80;21452;-43
2021/10/30 01:51:06;;;;;;;40.17;19.48;;;;;;;5.03;100.00;102349.05;1763939;80;21759;-43
2021/10/30 01:53:33;;;;;;;25.80;17.45;;;;;;;5.03;100.00;102350.33;1762716;80;20882;-43
2021/10/30 01:56:00;;;;;;;37.15;16.50;;;;;;;5.03;100.00;102350.33;1760027;80;21074;-43
2021/10/30 01:58:26;;;;;;;34.20;18.30;;;;;;;5.04;100.00;102347.38;1733390;81;21150;-43
2021/10/30 02:00:54;;;;;;;48.30;17.00;;;;;;;5.04;100.00;102345.66;1753982;80;21058;-43
2021/10/30 02:03:23;;;;;;;23.62;14.63;;;;;;;5.04;100.00;102349.51;1751654;80;21924;-43
2021/10/30 02:05:52;;;;;;;35.58;16.95;;;;;;;5.04;100.00;102348.66;1752710;81;20878;-43
2021/10/30 02:08:20;;;;;;;29.30;16.77;;;;;;;5.02;100.00;102343.45;1751727;81;21003;-43
2021/10/30 02:10:48;;;;;;;32.20;17.10;;;;;;;5.02;100.00;102345.16;1753179;81;21004;-43
2021/10/30 02:13:15;;;;;;;32.80;17.05;;;;;;;5.02;100.00;102347.73;1755237;81;21012;-43
2021/10/30 02:15:42;;;;;;;34.00;18.10;;;;;;;5.01;100.00;102353.69;1754301;81;21932;-43
2021/10/30 02:18:10;;;;;;;46.85;17.17;;;;;;;4.99;100.00;102359.17;1755715;81;20880;-43
2021/10/30 02:20:37;;;;;;;27.67;17.25;;;;;;;4.98;100.00;102357.00;1748921;81;20963;-43
2021/10/30 02:23:03;;;;;;;26.07;16.32;;;;;;;5.01;100.00;102358.81;1755867;80;20992;-43
2021/10/30 02:25:32;;;;;;;37.73;16.23;;;;;;;5.02;100.00;102359.28;1756777;81;21027;-43
2021/10/30 02:27:58;;;;;;;47.67;18.50;;;;;;;5.02;100.00;102355.43;1750094;81;21517;-43
2021/10/30 02:30:25;;;;;;;43.35;17.35;;;;;;;5.01;100.00;102354.97;1753436;81;20941;-43
2021/10/30 02:32:52;;;;;;;26.27;15.70;;;;;;;5.02;100.00;102353.72;1756888;80;21067;-43
2021/10/30 02:35:19;;;;;;;29.42;16.73;;;;;;;5.05;100.00;102354.25;1753494;81;21065;-43
2021/10/30 02:37:47;;;;;;;39.48;16.80;;;;;;;5.05;100.00;102361.95;1743483;80;21032;-43
2021/10/30 02:40:13;;;;;;;24.12;15.32;;;;;;;5.03;100.00;102359.74;1749555;81;21110;-43
2021/10/30 02:42:39;;;;;;;33.85;16.40;;;;;;;5.03;100.00;102359.74;1750251;81;20896;-43
2021/10/30 02:45:07;;;;;;;28.92;16.10;;;;;;;4.99;100.00;102354.90;1756943;81;20928;-43
2021/10/30 02:47:34;;;;;;;27.32;16.62;;;;;;;4.96;100.00;102357.36;1732296;81;20941;-43
2021/10/30 02:50:01;;;;;;;33.10;16.90;;;;;;;4.94;100.00;102360.72;1751438;81;20997;-43
2021/10/30 02:52:27;;;;;;;27.67;16.77;;;;;;;4.93;100.00;102366.67;1755666;80;21720;-43
2021/10/30 02:54:54;;;;;;;33.42;16.48;;;;;;;4.92;100.00;102362.32;1752517;81;20967;-43
2021/10/30 02:57:23;;;;;;;29.72;17.23;;;;;;;4.89;100.00;102365.67;1756255;81;21143;-43
2021/10/30 02:59:51;;;;;;;39.33;17.07;;;;;;;4.88;100.00;102365.20;1748457;81;21014;-43
2021/10/30 03:02:18;;;;;;;34.50;16.35;;;;;;;4.89;100.00;102362.68;1736175;81;21023;-43
2021/10/30 03:04:46;;;;;;;28.30;16.40;;;;;;;4.88;100.00;102358.37;1755641;81;21182;-43
2021/10/30 03:07:12;;;;;;;25.10;15.03;;;;;;;4.88;100.00;102362.22;1757370;81;21063;-43
2021/10/30 03:09:41;;;;;;;31.45;15.98;;;;;;;4.89;100.00;102365.67;1737548;81;21692;-43
2021/10/30 03:12:09;;;;;;;28.10;15.70;;;;;;;4.86;100.00;102366.42;1748755;81;21043;-43
2021/10/30 03:14:35;;;;;;;22.77;15.20;;;;;;;4.85;100.00;102367.25;1723938;81;21110;-43
2021/10/30 03:17:04;;;;;;;29.70;14.50;;;;;;;4.86;100.00;102368.13;1752890;80;21162;-43
2021/10/30 03:19:33;;;;;;;26.52;15.15;;;;;;;4.85;100.00;102372.37;1752878;81;21307;-43
2021/10/30 03:21:59;;;;;;;29.55;15.85;;;;;;;4.84;100.00;102378.33;1721780;81;20974;-43
2021/10/30 03:24:25;;;;;;;33.70;15.48;;;;;;;4.83;100.00;102377.01;1752641;80;21000;-43
2021/10/30 03:26:52;;;;;;;32.05;16.17;;;;;;;4.81;100.00;102374.38;1755829;81;20885;-43
2021/10/30 03:29:18;;;;;;;29.07;16.07;;;;;;;4.80;100.00;102375.19;1748259;81;21115;-43
2021/10/30 03:31:45;;;;;;;26.15;16.20;;;;;;;4.79;100.00;102376.41;1759238;81;21028;-43
2021/10/30 03:34:11;;;;;;;31.20;15.55;;;;;;;4.79;100.00;102387.56;1750158;81;21081;-42
2021/10/30 03:36:39;;;;;;;17.23;14.03;;;;;;;4.79;100.00;102387.56;1749771;81;21004;-43
2021/10/30 03:39:05;;;;;;;32.00;15.28;;;;;;;4.79;100.00;102376.02;1751851;81;20995;-43
2021/10/30 03:41:33;;;;;;;24.60;16.55;;;;;;;4.81;100.00;102378.22;1757419;81;21059;-43
2021/10/30 03:43:59;;;;;;;40.17;18.90;;;;;;;4.81;100.00;102368.39;1755335;80;20972;-43
2021/10/30 03:46:26;;;;;;;44.65;20.17;;;;;;;4.79;100.00;102382.82;1758441;81;21531;-43
2021/10/30 03:48:52;;;;;;;36.40;24.80;;;;;;;4.75;100.00;102378.01;1751880;81;21466;-43
2021/10/30 03:51:18;;;;;;;36.63;19.60;;;;;;;4.75;100.00;102378.86;1748047;81;20920;-43
2021/10/30 03:53:45;;;;;;;27.40;16.27;;;;;;;4.74;100.00;102382.67;1754330;81;20919;-43
2021/10/30 03:56:12;;;;;;;23.95;15.48;;;;;;;4.72;100.00;102391.59;1757665;81;20914;-43
2021/10/30 03:58:38;;;;;;;21.68;15.15;;;;;;;4.69;100.00;102390.19;1754649;81;20917;-43
2021/10/30 04:01:04;;;;;;;31.52;14.95;;;;;;;4.67;100.00;102391.83;1751819;81;20888;-43
2021/10/30 04:03:31;;;;;;;27.22;14.73;;;;;;;4.66;100.00;102395.22;1754643;81;21000;-43
2021/10/30 04:05:58;;;;;;;29.40;15.30;;;;;;;4.65;100.00;102394.75;1752610;81;21148;-43
2021/10/30 04:08:24;;;;;;;25.60;14.87;;;;;;;4.65;100.00;102395.14;1750128;81;21186;-43
2021/10/30 04:10:51;;;;;;;24.98;15.30;;;;;;;4.64;100.00;102403.27;1754313;80;21695;-43
2021/10/30 04:13:18;;;;;;;23.38;14.28;;;;;;;4.62;100.00;102409.14;1748673;81;20944;-42
2021/10/30 04:15:45;;;;;;;26.00;13.93;;;;;;;4.59;100.00;102403.09;1754602;81;20962;-42
2021/10/30 04:18:11;;;;;;;18.20;14.73;;;;;;;4.56;100.00;102410.67;1754755;81;21060;-42
2021/10/30 04:20:37;;;;;;;24.32;14.90;;;;;;;4.50;100.00;102399.30;1753099;81;21567;-42
2021/10/30 04:23:04;;;;;;;26.20;14.35;;;;;;;4.45;100.00;102408.97;1752652;81;21374;-42
2021/10/30 04:25:30;;;;;;;26.37;15.38;;;;;;;4.40;100.00;102413.45;1747413;81;20936;-43
2021/10/30 04:27:57;;;;;;;20.72;14.60;;;;;;;4.36;100.00;102416.72;1751755;81;20904;-42
2021/10/30 04:30:23;;;;;;;24.65;16.07;;;;;;;4.33;100.00;102409.80;1755663;81;21148;-42
2021/10/30 04:32:50;;;;;;;31.07;16.23;;;;;;;4.33;100.00;102420.06;1757944;81;21454;-43
2021/10/30 04:35:16;;;;;;;51.35;16.10;;;;;;;4.30;100.00;102409.69;1756452;81;22720;-43
2021/10/30 04:37:43;;;;;;;29.05;16.48;;;;;;;4.25;100.00;102412.06;1755861;81;22681;-42
2021/10/30 04:40:11;;;;;;;28.42;16.52;;;;;;;4.25;100.00;102412.06;1745393;81;21499;-42
2021/10/30 04:42:37;;;;;;;26.77;16.25;;;;;;;4.28;100.00;102418.59;1720924;81;21122;-42
2021/10/30 04:45:05;;;;;;;32.95;15.10;;;;;;;4.27;100.00;102415.56;1753612;81;20934;-43
2021/10/30 04:47:31;;;;;;;36.45;15.38;;;;;;;4.24;100.00;102425.70;1753862;81;21039;-42
2021/10/30 04:49:58;;;;;;;29.42;16.77;;;;;;;4.18;100.00;102420.34;1754107;81;20945;-42
2021/10/30 04:52:25;;;;;;;28.45;16.07;;;;;;;4.16;100.00;102415.53;1750774;81;21026;-43
2021/10/30 04:54:51;;;;;;;27.00;15.58;;;;;;;4.15;100.00;102421.08;1755288;81;21112;-42
2021/10/30 04:57:18;;;;;;;31.75;17.55;;;;;;;4.12;100.00;102418.78;1747314;81;20995;-42
2021/10/30 04:59:44;;;;;;;28.75;16.62;;;;;;;3.98;100.00;102422.97;1747362;80;21032;-42
2021/10/30 05:02:11;;;;;;;24.67;17.12;;;;;;;3.98;100.00;102422.97;1758248;81;21512;-42
2021/10/30 05:04:38;;;;;;;45.20;15.35;;;;;;;3.96;100.00;102436.13;1753134;81;21086;-42
2021/10/30 05:07:05;;;;;;;37.60;16.80;;;;;;;3.93;100.00;102433.45;1756890;81;21072;-42
2021/10/30 05:09:31;;;;;;;26.95;15.60;;;;;;;3.89;100.00;102432.83;1751566;81;20940;-42
2021/10/30 05:11:57;;;;;;;40.83;18.07;;;;;;;3.82;100.00;102432.12;1727256;80;21071;-42
2021/10/30 05:14:24;;;;;;;28.23;16.93;;;;;;;3.76;100.00;102439.56;1754237;81;21530;-43
2021/10/30 05:16:52;;;;;;;33.18;17.15;;;;;;;3.76;100.00;102439.56;1751595;81;21063;-42
2021/10/30 05:19:19;;;;;;;22.07;14.13;;;;;;;3.74;100.00;102440.37;1752418;81;21002;-43
2021/10/30 05:21:46;;;;;;;32.53;17.15;;;;;;;3.76;100.00;102445.97;1758548;81;21574;-42
2021/10/30 05:24:13;;;;;;;33.73;18.15;;;;;;;3.67;100.00;102440.94;1751862;81;21086;-42
2021/10/30 05:26:39;;;;;;;36.28;16.73;;;;;;;3.63;100.00;102446.71;1727160;81;20992;-43
2021/10/30 05:29:06;;;;;;;29.40;17.10;;;;;;;3.62;100.00;102444.97;1756722;81;21094;-42
2021/10/30 05:31:33;;;;;;;41.42;18.77;;;;;;;3.63;100.00;102444.16;1757109;81;21048;-42
2021/10/30 05:33:59;;;;;;;31.85;17.80;;;;;;;3.62;100.00;102447.95;1756294;81;21000;-43
2021/10/30 05:36:41;;;;;;;29.72;15.55;;;;;;;3.63;100.00;102449.27;1759700;81;21530;-42
2021/10/30 05:39:16;;;;;;;27.58;15.88;;;;;;;3.64;100.00;102451.45;1756790;81;20926;-42
2021/10/30 05:41:43;;;;;;;36.88;16.73;;;;;;;3.66;100.00;102455.80;1763174;80;21427;-42
2021/10/30 05:44:11;;;;;;;27.17;11.97;;;;;;;3.68;100.00;102452.04;1753267;81;21120;-42
2021/10/30 05:46:37;;;;;;;14.53;9.73;;;;;;;3.76;100.00;102465.17;1753597;81;20980;-42
2021/10/30 05:49:06;;;;;;;23.12;10.30;;;;;;;3.76;100.00;102465.17;1737033;81;20933;-42
2021/10/30 05:51:34;;;;;;;22.98;10.38;;;;;;;3.86;100.00;102466.02;1759186;80;20937;-42
2021/10/30 05:54:02;;;;;;;23.12;12.10;;;;;;;3.86;100.00;102466.02;1748594;81;20978;-42
2021/10/30 05:56:30;;;;;;;29.05;16.20;;;;;;;3.92;100.00;102467.58;1749101;80;21530;-42
2021/10/30 05:58:58;;;;;;;37.13;17.85;;;;;;;3.93;100.00;102464.20;1757228;81;21063;-42
2021/10/30 06:01:25;;;;;;;31.23;18.95;;;;;;;3.95;100.00;102470.66;1748638;81;21124;-42
2021/10/30 06:03:51;;;;;;;31.87;19.45;;;;;;;3.96;100.00;102468.17;1756588;81;21273;-42
2021/10/30 06:06:17;;;;;;;24.05;16.15;;;;;;;4.04;100.00;102474.86;1756113;81;20942;-42
2021/10/30 06:08:44;;;;;;;48.33;17.92;;;;;;;4.10;100.00;102471.30;1751764;81;21066;-42
2021/10/30 06:11:12;;;;;;;43.55;18.17;;;;;;;4.11;100.00;102479.84;1753139;81;20965;-41
2021/10/30 06:13:39;;;;;;;26.73;15.05;;;;;;;4.12;100.00;102476.08;1754098;81;21479;-42
2021/10/30 06:16:05;;;;;;;40.00;20.08;;;;;;;4.11;100.00;102468.30;1724879;80;21453;-42
2021/10/30 06:18:32;;;;;;;31.70;18.82;;;;;;;4.01;100.00;102469.23;1757669;81;21522;-42
2021/10/30 06:20:58;;;;;;;21.80;14.10;;;;;;;4.02;100.00;102473.54;1731110;81;21665;-42
2021/10/30 06:23:25;;;;;;;42.55;18.02;;;;;;;4.03;100.00;102472.72;1758414;80;21617;-42
2021/10/30 06:25:51;;;;;;;57.27;18.10;;;;;;;3.95;100.00;102473.22;1752249;81;21042;-42
2021/10/30 06:28:17;;;;;;;48.52;17.40;;;;;;;3.91;100.00;102476.47;1759038;81;21157;-42
2021/10/30 06:30:44;;;;;;;32.75;17.95;;;;;;;3.92;100.00;102477.83;1748023;81;20937;-42
2021/10/30 06:33:10;;;;;;;21.65;13.68;;;;;;;3.92;100.00;102473.98;1751630;81;21051;-42
2021/10/30 06:35:37;;;;;;;31.23;17.57;;;;;;;3.93;100.00;102477.02;1756102;81;20972;-42
2021/10/30 06:38:05;;;;;;;25.70;16.57;;;;;;;3.92;100.00;102475.27;1753680;81;21026;-42
2021/10/30 06:40:31;;;;;;;26.82;16.37;;;;;;;3.92;100.00;102475.27;1738012;81;20930;-42
2021/10/30 06:42:57;;;;;;;22.25;12.37;;;;;;;4.01;100.00;102479.48;1738325;81;20929;-42
2021/10/30 06:45:24;;;;;;;27.32;14.63;;;;;;;4.07;100.00;102477.97;1759076;81;21152;-42
2021/10/30 06:47:50;;;;;;;29.50;13.72;;;;;;;3.99;100.00;102472.52;1732617;81;21004;-42
2021/10/30 06:50:23;;;;;;;27.60;14.95;;;;;;;3.96;100.00;102471.13;1750250;81;20892;-42
2021/10/30 06:52:51;;;;;;;23.22;13.78;;;;;;;3.94;100.00;102476.20;1754036;80;20978;-42
2021/10/30 06:55:20;;;;;;;27.70;15.80;;;;;;;3.98;100.00;102472.95;1747478;81;20916;-42
2021/10/30 06:57:49;;;;;;;39.65;14.25;;;;;;;4.04;100.00;102476.14;1755727;80;21068;-42
2021/10/30 07:00:16;;;;;;;38.75;12.45;;;;;;;4.11;100.00;102478.56;1758820;81;21069;-42
2021/10/30 07:02:44;;;;;;;22.62;13.65;;;;;;;4.14;100.00;102481.24;1749594;81;21003;-42
2021/10/30 07:05:11;;;;;;;28.90;14.58;;;;;;;4.09;100.00;102481.08;1755015;81;20963;-42
2021/10/30 07:07:39;;;;;;;23.57;15.15;;;;;;;4.09;100.00;102482.75;1753369;81;20983;-42
2021/10/30 07:10:07;;;;;;;22.82;15.10;;;;;;;4.15;100.00;102485.55;1753831;80;21087;-42
2021/10/30 07:12:36;;;;;;;29.50;12.63;;;;;;;4.26;100.00;102477.91;1729150;81;20964;-42
2021/10/30 07:15:02;;;;;;;12.93;10.05;;;;;;;4.32;100.00;102479.85;1713092;81;21000;-42
2021/10/30 07:17:31;;;;;;;14.68;11.75;;;;;;;4.28;100.00;102488.20;1756190;81;20976;-42
2021/10/30 07:19:57;;;;;;;21.52;13.15;;;;;;;4.16;100.00;102482.18;1751559;81;20924;-42
2021/10/30 07:22:24;;;;;;;24.75;15.30;;;;;;;4.14;100.00;102482.52;1754652;81;21115;-42
2021/10/30 07:24:50;;;;;;;31.40;13.72;;;;;;;4.14;100.00;102477.40;1751535;81;20976;-42
2021/10/30 07:27:18;;;;;;;21.65;13.83;;;;;;;4.17;100.00;102477.13;1755146;81;21085;-42
2021/10/30 07:29:49;;;;;;;25.23;14.73;;;;;;;4.25;100.00;102486.42;1749674;81;20987;-42
2021/10/30 07:32:17;;;;;;;25.35;16.00;;;;;;;4.26;100.00;102472.78;1758235;81;20894;-42
2021/10/30 07:34:43;;;;;;;22.87;14.47;;;;;;;4.34;100.00;102471.81;1757357;81;21086;-42
2021/10/30 07:37:09;;;;;;;29.35;13.93;;;;;;;4.44;100.00;102470.48;1726976;81;20941;-42
2021/10/30 07:39:36;;;;;;;25.17;15.32;;;;;;;4.47;100.00;102477.02;1753799;81;20969;-42
2021/10/30 07:42:04;;;;;;;29.00;16.62;;;;;;;4.50;100.00;102474.56;1755366;81;21028;-42
2021/10/30 07:44:30;;;;;;;34.10;16.95;;;;;;;4.50;100.00;102474.56;1760031;80;20937;-42
2021/10/30 07:46:57;;;;;;;30.92;17.50;;;;;;;4.56;100.00;102476.08;1751621;81;21084;-42
2021/10/30 07:49:23;;;;;;;33.48;16.07;;;;;;;4.64;100.00;102476.38;1752845;80;20996;-42
2021/10/30 07:51:50;;;;;;;25.45;16.70;;;;;;;4.81;100.00;102465.47;1755354;81;21521;-42
2021/10/30 07:54:16;;;;;;;21.35;13.75;;;;;;;5.00;100.00;102472.58;1753424;81;21478;-42
2021/10/30 07:56:43;;;;;;;26.55;14.43;;;;;;;5.17;100.00;102475.77;1732806;81;20953;-42
2021/10/30 07:59:09;;;;;;;28.92;18.40;;;;;;;5.18;100.00;102474.55;1752551;81;21108;-42
2021/10/30 08:01:37;;;;;;;27.02;16.62;;;;;;;5.33;100.00;102470.77;1752907;81;20888;-42
2021/10/30 08:04:03;;;;;;;31.27;17.82;;;;;;;5.44;100.00;102469.86;1733675;81;20961;-42
2021/10/30 08:06:30;;;;;;;33.78;18.90;;;;;;;5.53;100.00;102468.89;1758587;81;20949;-42
2021/10/30 08:08:56;;;;;;;37.48;19.60;;;;;;;5.64;100.00;102473.54;1759078;80;21008;-42
2021/10/30 08:11:23;;;;;;;29.15;16.93;;;;;;;5.73;100.00;102474.73;1753849;81;21119;-42
2021/10/30 08:13:49;;;;;;;25.52;14.75;;;;;;;5.85;100.00;102473.38;1732924;81;20968;-42
2021/10/30 08:16:16;;;;;;;30.65;16.50;;;;;;;5.97;100.00;102468.66;1725020;81;20980;-42
2021/10/30 08:18:43;;;;;;;30.52;18.17;;;;;;;6.06;100.00;102466.81;1751225;81;21531;-42
2021/10/30 08:21:10;;;;;;;25.43;16.40;;;;;;;6.22;100.00;102463.06;1732688;81;20953;-42
2021/10/30 08:23:36;;;;;;;30.97;17.32;;;;;;;6.30;100.00;102460.70;1753189;81;21150;-42
2021/10/30 08:26:03;;;;;;;35.15;18.48;;;;;;;6.31;99.72;102462.05;1756238;81;20906;-42
2021/10/30 08:28:29;;;;;;;34.88;17.35;;;;;;;6.42;99.80;102463.67;1753364;81;21028;-42
2021/10/30 08:30:57;;;;;;;32.30;19.45;;;;;;;6.58;99.85;102465.44;1753380;81;20933;-42
2021/10/30 08:33:24;;;;;;;38.63;21.80;;;;;;;6.68;98.87;102465.28;1758103;81;21146;-42
2021/10/30 08:35:50;;;;;;;38.55;22.32;;;;;;;6.73;98.14;102465.88;1755442;81;21132;-42
2021/10/30 08:38:17;;;;;;;40.08;20.97;;;;;;;6.81;97.93;102462.66;1751403;80;21006;-42
2021/10/30 08:40:44;;;;;;;28.75;17.92;;;;;;;6.88;96.95;102462.03;1754542;81;20992;-42
2021/10/30 08:43:21;;;;;;;40.10;21.00;;;;;;;6.89;96.33;102459.91;1756720;81;21006;-42
2021/10/30 08:45:49;;;;;;;39.75;21.97;;;;;;;6.91;96.23;102456.96;1729775;81;20991;-42
2021/10/30 08:48:19;;;;;;;48.02;23.00;;;;;;;7.02;96.00;102459.84;1750257;81;21178;-42
2021/10/30 08:50:48;;;;;;;42.93;21.90;;;;;;;7.10;95.10;102462.22;1757239;81;20924;-42
2021/10/30 08:53:14;;;;;;;40.08;21.65;;;;;;;7.22;94.93;102450.52;1751467;81;20980;-42
2021/10/30 08:55:40;;;;;;;32.28;20.45;;;;;;;7.38;94.67;102449.23;1750472;80;21125;-42
2021/10/30 08:58:11;;;;;;;95.07;44.80;;;;;;;7.44;93.72;102453.25;1753920;81;21011;-42
2021/10/30 09:00:50;;;;;;;43.58;23.25;;;;;;;7.46;92.90;102449.01;1753087;81;21920;-42
2021/10/30 09:03:21;;;;;;;48.50;23.02;;;;;;;7.51;92.27;102445.27;1754744;81;21503;-42
2021/10/30 09:05:54;;;;;;;41.60;23.45;;;;;;;7.61;91.98;102445.55;1748909;81;21060;-42
2021/10/30 09:08:23;;;;;;;44.63;21.87;;;;;;;7.72;91.59;102441.96;1726988;81;21033;-42
2021/10/30 09:10:52;;;;;;;42.62;22.93;;;;;;;7.87;90.69;102449.60;1753246;81;21015;-42
2021/10/30 09:13:23;;;;;;;40.73;18.67;;;;;;;7.94;90.25;102441.61;1756239;80;21147;-42
2021/10/30 09:15:54;;;;;;;32.75;19.45;;;;;;;7.98;88.82;102443.02;1741265;81;21040;-42
2021/10/30 09:18:28;;;;;;;41.77;20.72;;;;;;;7.90;88.70;102447.09;1707152;81;21505;-42
2021/10/30 09:21:15;;;;;;;44.83;21.25;;;;;;;8.04;89.05;102443.16;1759019;80;21467;-42
2021/10/30 09:23:49;;;;;;;41.28;19.90;;;;;;;8.27;88.13;102439.36;1752343;80;20898;-42
2021/10/30 09:26:26;;;;;;;45.43;20.75;;;;;;;8.34;85.42;102441.27;1749203;81;21911;-42
2021/10/30 09:28:58;;;;;;;42.70;22.45;;;;;;;8.12;84.67;102439.48;1707126;83;20922;-42
2021/10/30 09:31:25;;;;;;;49.93;21.85;;;;;;;8.08;85.30;102440.65;1686926;83;21549;-42
2021/10/30 09:34:03;;;;;;;56.95;24.25;;;;;;;8.10;85.36;102438.97;1679497;84;21495;-42
2021/10/30 09:36:35;;;;;;;49.90;24.70;;;;;;;8.17;85.83;102435.30;1751311;80;20980;-42
2021/10/30 09:39:07;;;;;;;56.92;26.50;;;;;;;8.31;84.95;102429.16;1724510;80;21004;-42
2021/10/30 09:41:45;;;;;;;73.25;32.95;;;;;;;8.38;85.14;102433.16;1752122;81;20915;-42
2021/10/30 09:44:24;;;;;;;59.40;25.65;;;;;;;8.50;85.13;102430.89;1751068;81;20936;-42
2021/10/30 09:46:56;;;;;;;56.77;24.52;;;;;;;8.71;84.77;102431.77;1757975;81;20961;-42
2021/10/30 09:49:27;;;;;;;47.27;22.77;;;;;;;8.85;83.28;102434.63;1753941;81;21483;-42
2021/10/30 09:52:10;;;;;;;47.03;23.35;;;;;;;9.05;84.02;102425.12;1752428;81;21141;-42
2021/10/30 09:54:45;;;;;;;51.85;22.80;;;;;;;9.34;82.96;102426.94;1726135;81;21078;-42
2021/10/30 09:57:30;;;;;;;60.00;23.35;;;;;;;9.71;81.24;102425.85;1756985;81;20896;-42
2021/10/30 10:00:00;;;;;;;60.50;23.20;;;;;;;9.94;79.07;102418.89;1756404;81;20994;-42
2021/10/30 10:02:26;;;;;;;58.28;23.50;;;;;;;9.87;77.17;102416.21;1753008;81;20933;-42
2021/10/30 10:04:54;;;;;;;59.58;24.32;;;;;;;9.97;77.52;102417.20;1753239;81;21489;-42
2021/10/30 10:07:21;;;;;;;55.28;24.27;;;;;;;10.23;77.60;102415.86;1752200;81;21003;-43
2021/10/30 10:09:52;;;;;;;57.65;23.73;;;;;;;10.56;76.97;102415.48;1757237;81;20945;-42
2021/10/30 10:12:19;;;;;;;54.18;22.90;;;;;;;10.80;75.49;102411.88;1747328;81;21038;-43
2021/10/30 10:14:46;;;;;;;53.08;23.57;;;;;;;10.91;74.43;102409.00;1750802;81;21375;-43
2021/10/30 10:17:12;;;;;;;51.98;23.65;;;;;;;11.03;73.23;102410.86;1750216;81;21151;-43
2021/10/30 10:19:40;;;;;;;53.80;23.18;;;;;;;11.07;71.60;102408.30;1752569;81;21036;-43
2021/10/30 10:22:07;;;;;;;60.05;24.05;;;;;;;11.09;72.70;102405.73;1733026;81;21522;-43
2021/10/30 10:24:37;;;;;;;68.50;23.57;;;;;;;11.33;72.41;102402.94;1753848;81;20965;-43
2021/10/30 10:27:07;;;;;;;48.08;21.95;;;;;;;11.57;71.74;102398.39;1750432;81;21063;-43
2021/10/30 10:29:43;;;;;;;49.60;22.30;;;;;;;11.84;70.92;102393.42;1755053;81;21150;-43
2021/10/30 10:32:23;;;;;;;51.28;23.60;;;;;;;12.04;70.04;102386.67;1754105;81;20933;-43
2021/10/30 10:34:49;;;;;;;60.85;22.65;;;;;;;12.26;69.10;102381.61;1756140;81;20937;-42
2021/10/30 10:37:20;;;;;;;47.00;20.30;;;;;;;12.42;67.87;102383.84;1759043;81;21044;-42
2021/10/30 10:39:59;;;;;;;54.35;20.85;;;;;;;12.50;67.63;102383.86;1750959;81;21319;-43
2021/10/30 10:42:40;;;;;;;43.80;20.43;;;;;;;12.57;66.92;102379.14;1752745;81;21162;-43
2021/10/30 10:45:16;;;;;;;54.53;21.55;;;;;;;12.59;66.81;102377.41;1752554;81;20967;-43
2021/10/30 10:47:50;;;;;;;42.85;19.37;;;;;;;12.74;66.71;102377.90;1755615;81;20947;-43
2021/10/30 10:50:36;;;;;;;42.23;19.45;;;;;;;12.98;66.64;102376.23;1755746;80;20924;-43
2021/10/30 10:53:15;;;;;;;45.30;19.37;;;;;;;13.14;65.92;102375.82;1754812;81;21475;-43
2021/10/30 10:55:55;;;;;;;39.58;20.62;;;;;;;13.31;65.69;102369.78;1754810;81;21125;-43
2021/10/30 10:58:22;;;;;;;44.48;19.35;;;;;;;13.54;64.77;102361.14;1752466;81;20955;-43
2021/10/30 11:01:09;;;;;;;41.70;18.87;;;;;;;13.73;63.87;102358.08;1750960;81;21087;-43
2021/10/30 11:03:44;;;;;;;36.90;19.07;;;;;;;13.77;62.87;102358.50;1747364;81;20887;-43
2021/10/30 11:06:12;;;;;;;37.58;18.75;;;;;;;13.76;63.06;102349.81;1749718;81;20976;-43
2021/10/30 11:08:40;;;;;;;39.18;18.98;;;;;;;13.78;62.79;102352.43;1753453;81;21138;-43
2021/10/30 11:11:18;;;;;;;43.35;20.00;;;;;;;13.67;62.85;102353.74;1751039;81;21614;-43
2021/10/30 11:13:59;;;;;;;36.40;18.87;;;;;;;13.70;62.66;102352.88;1755203;81;20862;-43
2021/10/30 11:16:32;;;;;;;35.45;19.62;;;;;;;13.73;63.20;102350.28;1750238;81;20955;-43